createdAt,value
2022-09-23T00:02:34.997Z,10.55
2022-09-23T00:07:42.742Z,13.10
2022-09-23T00:12:47.896Z,13.48
2022-09-23T00:17:52.955Z,11.65
2022-09-23T00:23:00.789Z,11.75
2022-09-23T00:28:06.228Z,12.80
2022-09-23T00:33:11.311Z,12.50
2022-09-23T00:38:19.220Z,11.93
2022-09-23T00:43:39.431Z,13.93
2022-09-23T00:48:46.254Z,14.98
2022-09-23T00:53:54.913Z,11.63
2022-09-23T00:59:00.278Z,15.70
2022-09-23T01:04:06.136Z,15.88
2022-09-23T01:09:13.985Z,15.00
2022-09-23T01:14:32.332Z,16.25
2022-09-23T01:19:48.119Z,14.18
2022-09-23T01:25:05.797Z,16.48
2022-09-23T01:30:17.769Z,14.88
2022-09-23T01:35:30.647Z,13.00
2022-09-23T01:40:44.353Z,15.70
2022-09-23T01:45:54.733Z,14.57
2022-09-23T01:51:06.362Z,15.40
2022-09-23T01:56:15.415Z,15.07
2022-09-23T02:01:23.218Z,12.57
2022-09-23T02:06:34.934Z,13.88
2022-09-23T02:11:41.966Z,13.93
2022-09-23T02:16:48.689Z,15.70
2022-09-23T02:21:59.133Z,12.82
2022-09-23T02:27:13.310Z,13.32
2022-09-23T02:32:22.549Z,15.68
2022-09-23T02:37:37.780Z,12.93
2022-09-23T02:42:48.704Z,13.48
2022-09-23T02:47:56.410Z,11.93
2022-09-23T02:53:05.014Z,13.63
2022-09-23T02:58:10.293Z,14.32
2022-09-23T03:03:26.428Z,14.68
2022-09-23T03:08:40.052Z,15.80
2022-09-23T03:13:54.176Z,11.00
2022-09-23T03:19:02.521Z,13.13
2022-09-23T03:24:14.474Z,15.27
2022-09-23T03:29:20.196Z,12.18
2022-09-23T03:34:27.665Z,11.43
2022-09-23T03:39:41.904Z,12.32
2022-09-23T03:44:47.789Z,12.82
2022-09-23T03:50:00.474Z,10.82
2022-09-23T03:55:09.244Z,12.35
2022-09-23T04:00:17.772Z,12.65
2022-09-23T04:05:22.794Z,12.02
2022-09-23T04:10:30.534Z,10.98
2022-09-23T04:15:47.857Z,9.80
2022-09-23T04:20:53.324Z,9.30
2022-09-23T04:39:19.115Z,11.63
2022-09-23T04:44:23.400Z,17.80
2022-09-23T04:49:33.983Z,14.35
2022-09-23T04:54:39.182Z,16.88
2022-09-23T04:59:47.801Z,13.98
2022-09-23T05:04:53.039Z,16.58
2022-09-23T05:09:58.288Z,11.85
2022-09-23T05:15:06.235Z,13.63
2022-09-23T05:20:26.311Z,13.93
2022-09-23T05:25:34.079Z,12.95
2022-09-23T05:30:45.513Z,12.15
2022-09-23T05:35:51.441Z,15.93
2022-09-23T05:41:00.389Z,15.70
2022-09-23T05:46:09.940Z,20.67
2022-09-23T05:51:17.486Z,18.77
2022-09-23T05:56:24.939Z,24.67
2022-09-23T06:01:35.527Z,15.27
2022-09-23T06:06:42.826Z,12.27
2022-09-23T06:11:47.995Z,11.80
2022-09-23T06:16:55.914Z,12.68
2022-09-23T06:22:01.490Z,10.35
2022-09-23T06:27:06.885Z,9.45
2022-09-23T06:32:14.643Z,11.73
2022-09-23T06:37:20.797Z,11.52
2022-09-23T06:42:26.145Z,11.77
2022-09-23T06:47:34.166Z,10.50
2022-09-23T06:52:39.461Z,12.98
2022-09-23T06:57:44.787Z,11.18
2022-09-23T07:02:52.726Z,12.43
2022-09-23T07:13:05.147Z,12.65
2022-09-23T07:18:13.384Z,11.18
2022-09-23T07:23:18.598Z,19.48
2022-09-23T07:28:24.385Z,12.90
2022-09-23T07:33:33.437Z,14.10
2022-09-23T07:38:42.936Z,20.10
2022-09-23T07:43:51.508Z,15.70
2022-09-23T07:48:59.820Z,12.60
2022-09-23T07:54:08.250Z,12.73
2022-09-23T07:59:17.404Z,8.85
2022-09-23T08:04:27.961Z,9.85
2022-09-23T08:09:35.138Z,13.90
2022-09-23T08:14:40.724Z,8.18
2022-09-23T08:19:52.255Z,10.55
2022-09-23T08:24:58.788Z,7.78
2022-09-23T08:30:04.042Z,6.30
2022-09-23T08:35:12.852Z,8.60
2022-09-23T08:40:25.312Z,7.78
2022-09-23T08:45:31.264Z,6.72
2022-09-23T08:50:42.586Z,5.88
2022-09-23T08:56:01.470Z,6.88
2022-09-23T09:01:24.588Z,6.70
2022-09-23T09:06:45.535Z,4.72
2022-09-23T09:11:52.937Z,6.55
2022-09-23T09:22:12.946Z,7.88
2022-09-23T09:27:18.203Z,6.22
2022-09-23T09:32:30.765Z,6.07
2022-09-23T09:37:46.207Z,5.55
2022-09-23T09:42:54.735Z,4.78
2022-09-23T09:48:08.687Z,5.10
2022-09-23T09:53:42.834Z,5.97
2022-09-23T09:58:50.956Z,5.15
2022-09-23T10:04:00.748Z,5.63
2022-09-23T10:09:27.165Z,5.75
2022-09-23T10:14:39.192Z,5.97
2022-09-23T10:19:51.051Z,7.82
2022-09-23T10:25:02.297Z,4.75
2022-09-23T10:30:10.388Z,5.38
2022-09-23T10:35:24.714Z,5.70
2022-09-23T10:40:49.480Z,5.05
2022-09-23T10:46:09.006Z,4.30
2022-09-23T10:51:17.797Z,5.13
2022-09-23T10:56:32.611Z,4.85
2022-09-23T11:01:44.958Z,4.65
2022-09-23T11:07:01.800Z,5.90
2022-09-23T11:12:19.486Z,6.18
2022-09-23T11:17:42.657Z,6.45
2022-09-23T11:23:03.433Z,6.03
2022-09-23T11:28:29.910Z,5.22
2022-09-23T11:33:45.005Z,4.97
2022-09-23T11:38:57.162Z,6.05
2022-09-23T11:44:09.507Z,4.15
2022-09-23T11:49:17.776Z,5.72
2022-09-23T11:54:26.394Z,5.55
2022-09-23T11:59:45.327Z,5.32
2022-09-23T12:05:00.175Z,5.85
2022-09-23T12:10:09.705Z,4.63
2022-09-23T12:15:24.790Z,5.65
2022-09-23T12:21:27.435Z,4.03
2022-09-23T12:32:11.903Z,6.22
2022-09-23T12:37:17.307Z,5.55
2022-09-23T12:42:31.303Z,5.82
2022-09-23T12:47:45.120Z,5.35
2022-09-23T12:52:50.325Z,6.57
2022-09-23T12:57:55.627Z,4.15
2022-09-23T13:03:16.325Z,5.35
2022-09-23T13:08:23.167Z,5.20
2022-09-23T13:13:31.928Z,3.65
2022-09-23T13:19:03.675Z,5.88
2022-09-23T13:24:25.735Z,6.63
2022-09-23T13:29:35.950Z,3.17
2022-09-23T13:34:44.578Z,3.58
2022-09-23T13:39:49.727Z,4.05
2022-09-23T13:44:55.807Z,3.50
2022-09-23T13:50:04.695Z,3.33
2022-09-23T13:55:28.804Z,3.42
2022-09-23T14:00:39.248Z,2.83
2022-09-23T14:05:50.075Z,5.50
2022-09-23T14:10:56.082Z,4.47
2022-09-23T14:16:02.802Z,3.92
2022-09-23T14:21:35.381Z,5.60
2022-09-23T14:26:41.474Z,4.15
2022-09-23T14:31:57.241Z,3.85
2022-09-23T14:37:26.276Z,3.53
2022-09-23T14:42:31.748Z,7.22
2022-09-23T14:47:37.006Z,7.72
2022-09-23T14:52:52.044Z,11.57
2022-09-23T14:58:05.191Z,5.35
2022-09-23T15:03:17.865Z,3.95
2022-09-23T15:08:27.461Z,3.38
2022-09-23T15:13:34.585Z,5.55
2022-09-23T15:18:41.861Z,4.28
2022-09-23T15:23:55.105Z,3.80
2022-09-23T15:29:00.240Z,12.73
2022-09-23T15:34:05.943Z,6.75
2022-09-23T15:39:14.485Z,6.72
2022-09-23T15:44:21.987Z,7.82
2022-09-23T15:49:31.560Z,6.32
2022-09-23T15:54:39.489Z,10.40
2022-09-23T15:59:44.504Z,6.20
2022-09-23T16:04:52.781Z,6.97
2022-09-23T16:10:00.725Z,5.40
2022-09-23T16:15:06.049Z,7.30
2022-09-23T16:20:11.929Z,8.98
2022-09-23T16:25:20.078Z,15.23
2022-09-23T16:30:31.434Z,19.15
2022-09-23T16:35:43.426Z,15.13
2022-09-23T16:46:33.069Z,12.18
2022-09-23T16:51:38.993Z,11.82
2022-09-23T16:57:10.225Z,9.85
2022-09-23T17:02:28.981Z,13.30
2022-09-23T17:07:34.252Z,11.57
2022-09-23T17:18:19.347Z,11.70
2022-09-23T17:23:24.950Z,15.27
2022-09-23T17:28:32.831Z,15.60
2022-09-23T17:33:43.413Z,14.75
2022-09-23T17:38:56.967Z,19.73
2022-09-23T17:44:08.327Z,23.80
2022-09-23T17:49:13.739Z,24.67
2022-09-23T17:54:19.186Z,26.63
2022-09-23T17:59:27.111Z,23.50
2022-09-23T18:04:32.346Z,22.52
2022-09-23T18:09:37.423Z,24.73
2022-09-23T18:14:48.652Z,29.95
2022-09-23T18:19:55.977Z,26.30
2022-09-23T18:25:13.071Z,26.23
2022-09-23T18:30:33.299Z,31.45
2022-09-23T18:35:38.295Z,33.53
2022-09-23T18:40:54.428Z,29.52
2022-09-23T18:46:04.380Z,33.15
2022-09-23T18:51:10.618Z,31.95
2022-09-23T18:56:17.553Z,38.40
2022-09-23T19:01:26.467Z,42.03
2022-09-23T19:06:32.495Z,39.13
2022-09-23T19:11:40.786Z,40.30
2022-09-23T19:16:49.294Z,37.17
2022-09-23T19:21:55.075Z,30.95
2022-09-23T19:27:01.223Z,32.35
2022-09-23T19:32:09.027Z,34.05
2022-09-23T19:42:18.824Z,26.58
2022-09-23T19:47:26.654Z,27.20
2022-09-23T19:57:36.652Z,22.88
2022-09-23T20:02:44.422Z,21.67
2022-09-23T20:07:49.566Z,19.90
2022-09-23T20:12:56.104Z,21.25
2022-09-23T20:18:03.747Z,22.00
2022-09-23T20:23:08.914Z,22.10
2022-09-23T20:28:13.924Z,22.13
2022-09-23T20:33:22.496Z,22.15
2022-09-23T20:38:27.927Z,25.08
2022-09-23T20:43:34.764Z,30.05
2022-09-23T20:48:42.474Z,29.73
2022-09-23T20:53:47.650Z,26.85
2022-09-23T20:58:54.309Z,29.65
2022-09-23T21:04:09.927Z,30.08
2022-09-23T21:09:15.103Z,32.00
2022-09-23T21:14:20.630Z,25.63
2022-09-23T21:19:28.387Z,27.88
2022-09-23T21:25:03.900Z,25.98
2022-09-23T21:29:59.352Z,21.83
2022-09-23T21:35:07.307Z,21.55
2022-09-23T21:40:25.818Z,18.80
2022-09-23T21:45:31.861Z,16.05
2022-09-23T21:50:41.215Z,17.48
2022-09-23T21:55:49.088Z,20.33
2022-09-23T22:00:54.275Z,21.27
2022-09-23T22:06:10.469Z,22.52
2022-09-23T22:11:37.312Z,18.05
2022-09-23T22:16:42.592Z,19.35
2022-09-23T22:21:50.859Z,22.58
2022-09-23T22:26:55.972Z,22.88
2022-09-23T22:32:13.741Z,25.30
2022-09-23T22:37:23.968Z,28.42
2022-09-23T22:42:29.396Z,25.33
2022-09-23T22:47:37.861Z,23.63
2022-09-23T22:52:45.797Z,20.67
2022-09-23T23:02:59.373Z,20.77
2022-09-23T23:08:07.221Z,27.42
2022-09-23T23:13:12.357Z,25.02
2022-09-23T23:18:17.821Z,25.50
2022-09-23T23:23:25.590Z,22.88
2022-09-23T23:28:30.677Z,50.67
2022-09-23T23:33:35.756Z,51.85
2022-09-23T23:38:44.883Z,39.90
2022-09-23T23:43:50.900Z,35.35
2022-09-23T23:48:56.541Z,34.35
2022-09-23T23:54:04.570Z,28.60
2022-09-23T23:59:10.118Z,23.45
